createdAt,value
2023-08-07T00:01:00.923Z,99043.00
2023-08-07T00:03:31.462Z,99041.00
2023-08-07T00:06:00.140Z,99044.00
2023-08-07T00:08:28.843Z,99037.00
2023-08-07T00:11:07.744Z,99048.00
2023-08-07T00:13:36.643Z,99053.00
2023-08-07T00:16:06.039Z,99054.00
2023-08-07T00:18:36.127Z,99054.00
2023-08-07T00:21:04.925Z,99050.00
2023-08-07T00:23:33.803Z,99048.00
2023-08-07T00:26:02.479Z,99050.00
2023-08-07T00:28:31.415Z,99057.00
2023-08-07T00:31:00.298Z,99051.00
2023-08-07T00:33:29.119Z,99051.00
2023-08-07T00:35:59.220Z,99041.00
2023-08-07T00:38:29.211Z,99047.00
2023-08-07T00:40:57.892Z,99051.00
2023-08-07T00:43:26.543Z,99044.00
2023-08-07T00:45:55.751Z,99053.00
2023-08-07T00:48:24.633Z,99051.00
2023-08-07T00:50:54.513Z,99048.00
2023-08-07T00:53:24.962Z,99051.00
2023-08-07T00:55:54.123Z,99056.00
2023-08-07T00:58:22.874Z,99047.00
2023-08-07T01:00:51.609Z,99058.00
2023-08-07T01:03:20.441Z,99053.00
2023-08-07T01:05:49.199Z,99050.00
2023-08-07T01:08:18.291Z,99049.00
2023-08-07T01:11:03.624Z,99051.00
2023-08-07T01:13:38.779Z,99063.00
2023-08-07T01:16:15.831Z,99060.00
2023-08-07T01:18:47.279Z,99050.00
2023-08-07T01:21:20.808Z,99059.00
2023-08-07T01:23:50.992Z,99063.00
2023-08-07T01:26:22.574Z,99062.00
2023-08-07T01:29:00.108Z,99061.00
2023-08-07T01:31:31.977Z,99051.00
2023-08-07T01:34:04.439Z,99057.00
2023-08-07T01:36:34.166Z,99058.00
2023-08-07T01:39:07.903Z,99056.00
2023-08-07T01:41:38.261Z,99056.00
2023-08-07T01:44:07.341Z,99061.00
2023-08-07T01:46:36.028Z,99074.00
2023-08-07T01:49:04.724Z,99066.00
2023-08-07T01:51:33.460Z,99060.00
2023-08-07T01:54:03.886Z,99064.00
2023-08-07T01:56:32.620Z,99065.00
2023-08-07T01:59:01.394Z,99067.00
2023-08-07T02:01:30.109Z,99071.00
2023-08-07T02:03:58.910Z,99068.00
2023-08-07T02:06:27.741Z,99069.00
2023-08-07T02:08:56.465Z,99063.00
2023-08-07T02:11:26.589Z,99068.00
2023-08-07T02:13:55.300Z,99066.00
2023-08-07T02:16:24.072Z,99080.00
2023-08-07T02:18:52.803Z,99081.00
2023-08-07T02:21:21.558Z,99075.00
2023-08-07T02:23:50.320Z,99068.00
2023-08-07T02:26:19.076Z,99069.00
2023-08-07T02:28:49.153Z,99073.00
2023-08-07T02:31:17.953Z,99059.00
2023-08-07T02:33:46.660Z,99066.00
2023-08-07T02:36:15.337Z,99079.00
2023-08-07T02:38:44.009Z,99079.00
2023-08-07T02:41:12.759Z,99074.00
2023-08-07T02:43:41.436Z,99080.00
2023-08-07T02:46:11.681Z,99083.00
2023-08-07T02:48:41.137Z,99100.00
2023-08-07T02:51:09.969Z,99109.00
2023-08-07T02:53:38.713Z,99100.00
2023-08-07T02:56:07.426Z,99102.00
2023-08-07T02:58:36.178Z,99117.00
2023-08-07T03:01:07.645Z,99117.00
2023-08-07T03:03:38.009Z,99112.00
2023-08-07T03:06:07.078Z,99112.00
2023-08-07T03:08:35.867Z,99109.00
2023-08-07T03:11:05.246Z,99117.00
2023-08-07T03:13:34.038Z,99125.00
2023-08-07T03:16:03.394Z,99124.00
2023-08-07T03:18:32.432Z,99123.00
2023-08-07T03:21:02.757Z,99130.00
2023-08-07T03:23:31.707Z,99133.00
2023-08-07T03:28:42.712Z,99137.00
2023-08-07T03:31:11.511Z,99153.00
2023-08-07T03:33:40.258Z,99148.00
2023-08-07T03:36:10.444Z,99147.00
2023-08-07T03:38:39.253Z,99150.00
2023-08-07T03:41:07.983Z,99142.00
2023-08-07T03:43:36.670Z,99151.00
2023-08-07T03:46:05.381Z,99148.00
2023-08-07T03:48:34.143Z,99157.00
2023-08-07T03:51:06.902Z,99162.00
2023-08-07T03:53:37.080Z,99167.00
2023-08-07T03:56:06.286Z,99172.00
2023-08-07T03:58:35.034Z,99168.00
2023-08-07T04:01:04.120Z,99175.00
2023-08-07T04:03:33.217Z,99176.00
2023-08-07T04:06:03.165Z,99173.00
2023-08-07T04:08:32.000Z,99185.00
2023-08-07T04:11:03.208Z,99187.00
2023-08-07T04:13:32.809Z,99184.00
2023-08-07T04:16:05.329Z,99182.00
2023-08-07T04:18:34.474Z,99180.00
2023-08-07T04:21:03.555Z,99186.00
2023-08-07T04:23:32.657Z,99184.00
2023-08-07T04:26:03.532Z,99196.00
2023-08-07T04:28:32.365Z,99194.00
2023-08-07T04:31:01.132Z,99188.00
2023-08-07T04:33:30.336Z,99186.00
2023-08-07T04:35:59.082Z,99183.00
2023-08-07T04:38:27.909Z,99200.00
2023-08-07T04:40:56.649Z,99188.00
2023-08-07T04:43:26.799Z,99189.00
2023-08-07T04:45:56.460Z,99197.00
2023-08-07T04:48:26.516Z,99192.00
2023-08-07T04:50:55.210Z,99204.00
2023-08-07T04:53:23.942Z,99209.00
2023-08-07T04:55:52.736Z,99203.00
2023-08-07T04:58:21.509Z,99203.00
2023-08-07T05:00:56.339Z,99206.00
2023-08-07T05:03:25.252Z,99205.00
2023-08-07T05:05:59.871Z,99210.00
2023-08-07T05:08:28.671Z,99207.00
2023-08-07T05:10:57.414Z,99216.00
2023-08-07T05:13:26.192Z,99223.00
2023-08-07T05:15:56.287Z,99219.00
2023-08-07T05:18:24.981Z,99223.00
2023-08-07T05:20:53.686Z,99227.00
2023-08-07T05:23:22.469Z,99228.00
2023-08-07T05:25:51.244Z,99235.00
2023-08-07T05:28:19.954Z,99226.00
2023-08-07T05:30:48.668Z,99230.00
2023-08-07T05:33:18.770Z,99231.00
2023-08-07T05:35:47.495Z,99228.00
2023-08-07T05:38:16.206Z,99232.00
2023-08-07T05:40:45.120Z,99236.00
2023-08-07T05:43:14.260Z,99242.00
2023-08-07T05:45:43.957Z,99245.00
2023-08-07T05:48:12.953Z,99240.00
2023-08-07T05:50:42.976Z,99246.00
2023-08-07T05:53:11.714Z,99253.00
2023-08-07T05:55:43.230Z,99251.00
2023-08-07T05:58:12.080Z,99260.00
2023-08-07T06:00:41.204Z,99263.00
2023-08-07T06:03:10.046Z,99271.00
2023-08-07T06:05:38.752Z,99269.00
2023-08-07T06:08:08.960Z,99273.00
2023-08-07T06:10:37.732Z,99270.00
2023-08-07T06:13:06.575Z,99274.00
2023-08-07T06:15:35.659Z,99276.00
2023-08-07T06:18:04.476Z,99274.00
2023-08-07T06:20:33.296Z,99282.00
2023-08-07T06:23:02.032Z,99286.00
2023-08-07T06:25:32.192Z,99292.00
2023-08-07T06:28:00.941Z,99296.00
2023-08-07T06:30:38.849Z,99309.00
2023-08-07T06:33:07.652Z,99304.00
2023-08-07T06:35:40.766Z,99307.00
2023-08-07T06:38:09.519Z,99306.00
2023-08-07T06:40:41.028Z,99313.00
2023-08-07T06:43:09.755Z,99313.00
2023-08-07T06:45:38.519Z,99323.00
2023-08-07T06:48:07.515Z,99326.00
2023-08-07T06:50:36.289Z,99321.00
2023-08-07T06:53:04.997Z,99324.00
2023-08-07T06:55:34.191Z,99334.00
2023-08-07T06:58:04.325Z,99327.00
2023-08-07T07:00:34.967Z,99331.00
2023-08-07T07:03:03.951Z,99325.00
2023-08-07T07:05:33.064Z,99333.00
2023-08-07T07:08:01.885Z,99337.00
2023-08-07T07:10:30.682Z,99347.00
2023-08-07T07:13:01.968Z,99333.00
2023-08-07T07:15:32.117Z,99334.00
2023-08-07T07:18:01.003Z,99341.00
2023-08-07T07:20:29.894Z,99337.00
2023-08-07T07:22:58.648Z,99345.00
2023-08-07T07:25:27.412Z,99334.00
2023-08-07T07:27:56.113Z,99339.00
2023-08-07T07:30:24.925Z,99349.00
2023-08-07T07:33:03.901Z,99357.00
2023-08-07T07:35:43.916Z,99344.00
2023-08-07T07:38:33.035Z,99339.00
2023-08-07T07:41:14.129Z,99368.00
2023-08-07T07:43:57.406Z,99352.00
2023-08-07T07:46:44.368Z,99364.00
2023-08-07T07:49:20.508Z,99358.00
2023-08-07T07:51:58.729Z,99367.00
2023-08-07T07:54:27.734Z,99374.00
2023-08-07T07:57:01.003Z,99368.00
2023-08-07T07:59:44.247Z,99374.00
2023-08-07T08:02:28.643Z,99386.00
2023-08-07T08:05:02.712Z,99386.00
2023-08-07T08:07:33.370Z,99398.00
2023-08-07T08:10:03.058Z,99399.00
2023-08-07T08:12:35.605Z,99403.00
2023-08-07T08:15:07.549Z,99406.00
2023-08-07T08:17:36.756Z,99395.00
2023-08-07T08:20:08.705Z,99402.00
2023-08-07T08:22:37.880Z,99402.00
2023-08-07T08:25:07.992Z,99405.00
2023-08-07T08:27:36.754Z,99405.00
2023-08-07T08:30:06.220Z,99407.00
2023-08-07T08:32:35.356Z,99409.00
2023-08-07T08:35:04.176Z,99396.00
2023-08-07T08:37:34.309Z,99414.00
2023-08-07T08:40:03.151Z,99400.00
2023-08-07T08:42:32.063Z,99413.00
2023-08-07T08:45:03.102Z,99409.00
2023-08-07T08:47:35.566Z,99416.00
2023-08-07T08:50:11.134Z,99415.00
2023-08-07T08:52:44.293Z,99420.00
2023-08-07T08:55:14.123Z,99417.00
2023-08-07T08:57:43.353Z,99427.00
2023-08-07T09:00:19.148Z,99425.00
2023-08-07T09:02:49.206Z,99427.00
2023-08-07T09:05:19.331Z,99435.00
2023-08-07T09:07:50.458Z,99429.00
2023-08-07T09:10:20.215Z,99433.00
2023-08-07T09:12:56.504Z,99426.00
2023-08-07T09:15:27.974Z,99445.00
2023-08-07T09:17:57.209Z,99435.00
2023-08-07T09:20:26.688Z,99448.00
2023-08-07T09:22:56.920Z,99441.00
2023-08-07T09:25:32.579Z,99425.00
2023-08-07T09:28:05.288Z,99430.00
2023-08-07T09:30:36.355Z,99435.00
2023-08-07T09:33:05.469Z,99430.00
2023-08-07T09:35:35.508Z,99428.00
2023-08-07T09:38:05.630Z,99453.00
2023-08-07T09:40:34.460Z,99445.00
2023-08-07T09:43:04.657Z,99446.00
2023-08-07T09:45:35.868Z,99440.00
2023-08-07T09:48:07.441Z,99445.00
2023-08-07T09:50:36.657Z,99441.00
2023-08-07T09:53:07.065Z,99440.00
2023-08-07T09:55:35.955Z,99441.00
2023-08-07T09:58:04.734Z,99443.00
2023-08-07T10:00:37.335Z,99453.00
2023-08-07T10:03:06.676Z,99450.00
2023-08-07T10:05:35.701Z,99452.00
2023-08-07T10:08:06.933Z,99444.00
2023-08-07T10:10:36.221Z,99445.00
2023-08-07T10:13:15.930Z,99460.00
2023-08-07T10:15:50.170Z,99453.00
2023-08-07T10:18:28.677Z,99445.00
2023-08-07T10:20:59.287Z,99447.00
2023-08-07T10:23:29.657Z,99448.00
2023-08-07T10:25:59.321Z,99454.00
2023-08-07T10:28:30.112Z,99442.00
2023-08-07T10:30:59.753Z,99452.00
2023-08-07T10:33:29.125Z,99456.00
2023-08-07T10:36:00.837Z,99458.00
2023-08-07T10:38:30.924Z,99455.00
2023-08-07T10:41:02.998Z,99467.00
2023-08-07T10:43:32.763Z,99473.00
2023-08-07T10:46:08.293Z,99480.00
2023-08-07T10:48:44.904Z,99480.00
2023-08-07T10:51:17.001Z,99478.00
2023-08-07T10:53:49.976Z,99471.00
2023-08-07T10:56:21.557Z,99474.00
2023-08-07T10:58:54.264Z,99468.00
2023-08-07T11:01:24.929Z,99471.00
2023-08-07T11:03:54.986Z,99458.00
2023-08-07T11:06:29.248Z,99476.00
2023-08-07T11:09:00.048Z,99482.00
2023-08-07T11:11:29.970Z,99482.00
2023-08-07T11:13:58.683Z,99482.00
2023-08-07T11:16:29.714Z,99484.00
2023-08-07T11:18:59.166Z,99495.00
2023-08-07T11:21:29.183Z,99487.00
2023-08-07T11:23:59.438Z,99505.00
2023-08-07T11:26:29.372Z,99501.00
2023-08-07T11:28:58.511Z,99509.00
2023-08-07T11:31:28.943Z,99514.00
2023-08-07T11:33:58.807Z,99519.00
2023-08-07T11:36:27.646Z,99523.00
2023-08-07T11:38:56.447Z,99512.00
2023-08-07T11:41:26.624Z,99508.00
2023-08-07T11:43:55.446Z,99522.00
2023-08-07T11:46:24.367Z,99518.00
2023-08-07T11:48:56.554Z,99517.00
2023-08-07T11:51:25.646Z,99505.00
2023-08-07T11:53:57.830Z,99496.00
2023-08-07T11:56:28.163Z,99518.00
2023-08-07T11:58:56.896Z,99505.00
2023-08-07T12:01:27.199Z,99502.00
2023-08-07T12:03:58.099Z,99501.00
2023-08-07T12:06:27.505Z,99503.00
2023-08-07T12:08:58.633Z,99502.00
2023-08-07T12:11:31.052Z,99493.00
2023-08-07T12:14:31.367Z,99498.00
2023-08-07T12:17:00.145Z,99499.00
2023-08-07T12:19:39.569Z,99500.00
2023-08-07T12:22:10.411Z,99503.00
2023-08-07T12:24:39.264Z,99504.00
2023-08-07T12:27:10.409Z,99507.00
2023-08-07T12:29:39.112Z,99513.00
2023-08-07T12:32:08.706Z,99518.00
2023-08-07T12:35:15.240Z,99514.00
2023-08-07T12:37:27.795Z,99507.00
2023-08-07T12:42:29.428Z,99511.00
2023-08-07T12:44:59.513Z,99506.00
2023-08-07T12:47:28.434Z,99502.00
2023-08-07T12:49:57.302Z,99508.00
2023-08-07T12:52:26.051Z,99515.00
2023-08-07T12:55:00.755Z,99521.00
2023-08-07T12:57:31.666Z,99521.00
2023-08-07T13:00:00.642Z,99522.00
2023-08-07T13:02:29.429Z,99517.00
2023-08-07T13:04:58.446Z,99523.00
2023-08-07T13:07:27.283Z,99534.00
2023-08-07T13:09:56.676Z,99532.00
2023-08-07T13:12:25.561Z,99524.00
2023-08-07T13:14:55.752Z,99525.00
2023-08-07T13:17:24.448Z,99532.00
2023-08-07T13:19:53.250Z,99531.00
2023-08-07T13:22:22.006Z,99521.00
2023-08-07T13:24:50.731Z,99531.00
2023-08-07T13:27:19.464Z,99527.00
2023-08-07T13:29:49.276Z,99542.00
2023-08-07T13:32:21.634Z,99567.00
2023-08-07T13:34:50.438Z,99570.00
2023-08-07T13:37:19.209Z,99575.00
2023-08-07T13:39:50.221Z,99576.00
2023-08-07T13:42:18.972Z,99596.00
2023-08-07T13:44:48.192Z,99585.00
2023-08-07T13:47:19.187Z,99595.00
2023-08-07T13:49:48.123Z,99601.00
2023-08-07T13:52:16.937Z,99605.00
2023-08-07T13:54:45.671Z,99623.00
2023-08-07T13:57:14.395Z,99614.00
2023-08-07T13:59:43.181Z,99633.00
2023-08-07T14:02:12.079Z,99634.00
2023-08-07T14:04:46.291Z,99634.00
2023-08-07T14:07:15.292Z,99642.00
2023-08-07T14:09:44.046Z,99647.00
2023-08-07T14:12:12.773Z,99638.00
2023-08-07T14:14:41.604Z,99633.00
2023-08-07T14:17:10.379Z,99647.00
2023-08-07T14:19:39.442Z,99643.00
2023-08-07T14:22:09.687Z,99650.00
2023-08-07T14:24:38.442Z,99649.00
2023-08-07T14:27:07.606Z,99645.00
2023-08-07T14:32:05.870Z,99638.00
2023-08-07T14:34:34.655Z,99640.00
2023-08-07T14:37:03.458Z,99641.00
2023-08-07T14:39:33.642Z,99633.00
2023-08-07T14:42:02.766Z,99644.00
2023-08-07T14:44:31.796Z,99648.00
2023-08-07T14:47:00.548Z,99644.00
2023-08-07T14:49:30.220Z,99654.00
2023-08-07T14:51:59.326Z,99652.00
2023-08-07T14:54:28.226Z,99665.00
2023-08-07T14:56:59.560Z,99674.00
2023-08-07T14:59:28.277Z,99668.00
2023-08-07T15:01:57.402Z,99671.00
2023-08-07T15:04:26.651Z,99662.00
2023-08-07T15:06:55.560Z,99658.00
2023-08-07T15:09:24.399Z,99666.00
2023-08-07T15:11:53.221Z,99669.00
2023-08-07T15:14:23.536Z,99667.00
2023-08-07T15:16:52.378Z,99667.00
2023-08-07T15:19:21.169Z,99685.00
2023-08-07T15:21:52.334Z,99678.00
2023-08-07T15:24:21.135Z,99684.00
2023-08-07T15:26:50.005Z,99677.00
2023-08-07T15:29:18.810Z,99666.00
2023-08-07T15:31:49.298Z,99670.00
2023-08-07T15:34:18.459Z,99668.00
2023-08-07T15:36:47.398Z,99668.00
2023-08-07T15:39:16.248Z,99682.00
2023-08-07T15:41:45.032Z,99704.00
2023-08-07T15:44:13.829Z,99702.00
2023-08-07T15:46:42.708Z,99711.00
2023-08-07T15:49:12.887Z,99717.00
2023-08-07T15:51:41.825Z,99719.00
2023-08-07T15:54:10.623Z,99725.00
2023-08-07T15:56:39.364Z,99730.00
2023-08-07T15:59:08.060Z,99738.00
2023-08-07T16:01:36.794Z,99738.00
2023-08-07T16:04:06.991Z,99740.00
2023-08-07T16:06:37.119Z,99742.00
2023-08-07T16:09:05.935Z,99744.00
2023-08-07T16:11:34.743Z,99746.00
2023-08-07T16:14:03.727Z,99744.00
2023-08-07T16:16:32.636Z,99746.00
2023-08-07T16:19:01.415Z,99751.00
2023-08-07T16:21:30.205Z,99751.00
2023-08-07T16:24:00.420Z,99747.00
2023-08-07T16:26:29.202Z,99746.00
2023-08-07T16:28:58.127Z,99756.00
2023-08-07T16:31:28.283Z,99756.00
2023-08-07T16:33:57.169Z,99754.00
2023-08-07T16:36:26.063Z,99757.00
2023-08-07T16:38:55.615Z,99757.00
2023-08-07T16:41:25.930Z,99764.00
2023-08-07T16:43:54.833Z,99774.00
2023-08-07T16:46:23.595Z,99771.00
2023-08-07T16:48:52.497Z,99776.00
2023-08-07T16:51:21.311Z,99797.00
2023-08-07T16:53:50.136Z,99800.00
2023-08-07T16:56:18.856Z,99794.00
2023-08-07T16:58:49.785Z,99806.00
2023-08-07T17:01:18.958Z,99789.00
2023-08-07T17:03:47.906Z,99788.00
2023-08-07T17:06:16.645Z,99788.00
2023-08-07T17:08:47.411Z,99788.00
2023-08-07T17:11:16.415Z,99794.00
2023-08-07T17:13:45.309Z,99792.00
2023-08-07T17:16:15.533Z,99791.00
2023-08-07T17:18:44.287Z,99796.00
2023-08-07T17:21:13.120Z,99796.00
2023-08-07T17:23:42.395Z,99795.00
2023-08-07T17:26:11.428Z,99801.00
2023-08-07T17:28:40.250Z,99807.00
2023-08-07T17:31:09.298Z,99808.00
2023-08-07T17:33:39.467Z,99820.00
2023-08-07T17:36:08.653Z,99810.00
2023-08-07T17:38:37.454Z,99795.00
2023-08-07T17:41:06.423Z,99806.00
2023-08-07T17:43:35.190Z,99813.00
2023-08-07T17:46:04.057Z,99812.00
2023-08-07T17:48:33.408Z,99817.00
2023-08-07T17:51:03.595Z,99817.00
2023-08-07T17:53:32.360Z,99825.00
2023-08-07T17:56:01.354Z,99823.00
2023-08-07T17:58:30.122Z,99823.00
2023-08-07T18:01:00.145Z,99828.00
2023-08-07T18:03:29.155Z,99820.00
2023-08-07T18:05:57.999Z,99830.00
2023-08-07T18:08:28.212Z,99828.00
2023-08-07T18:10:57.340Z,99835.00
2023-08-07T18:13:26.175Z,99828.00
2023-08-07T18:15:54.983Z,99835.00
2023-08-07T18:18:24.040Z,99845.00
2023-08-07T18:20:53.097Z,99842.00
2023-08-07T18:23:21.872Z,99856.00
2023-08-07T18:25:52.071Z,99850.00
2023-08-07T18:28:21.232Z,99863.00
2023-08-07T18:30:50.155Z,99867.00
2023-08-07T18:33:18.981Z,99867.00
2023-08-07T18:35:47.860Z,99870.00
2023-08-07T18:38:17.152Z,99868.00
2023-08-07T18:40:45.918Z,99873.00
2023-08-07T18:43:16.094Z,99865.00
2023-08-07T18:45:44.976Z,99871.00
2023-08-07T18:48:13.781Z,99870.00
2023-08-07T18:50:42.627Z,99872.00
2023-08-07T18:53:11.578Z,99875.00
2023-08-07T18:55:40.311Z,99878.00
2023-08-07T18:58:09.276Z,99872.00
2023-08-07T19:00:39.417Z,99886.00
2023-08-07T19:03:08.249Z,99882.00
2023-08-07T19:05:37.052Z,99895.00
2023-08-07T19:08:06.369Z,99897.00
2023-08-07T19:10:35.193Z,99899.00
2023-08-07T19:13:03.998Z,99892.00
2023-08-07T19:15:32.787Z,99897.00
2023-08-07T19:18:04.954Z,99900.00
2023-08-07T19:20:34.243Z,99911.00
2023-08-07T19:23:03.803Z,99917.00
2023-08-07T19:25:32.864Z,99913.00
2023-08-07T19:28:01.577Z,99911.00
2023-08-07T19:30:32.103Z,99906.00
2023-08-07T19:33:02.559Z,99918.00
2023-08-07T19:35:31.404Z,99920.00
2023-08-07T19:38:00.298Z,99912.00
2023-08-07T19:40:30.050Z,99914.00
2023-08-07T19:42:58.820Z,99906.00
2023-08-07T19:45:27.616Z,99915.00
2023-08-07T19:47:56.607Z,99922.00
2023-08-07T19:50:27.593Z,99914.00
2023-08-07T19:52:56.683Z,99909.00
2023-08-07T19:55:25.662Z,99920.00
2023-08-07T19:57:54.492Z,99919.00
2023-08-07T20:00:23.413Z,99921.00
2023-08-07T20:02:52.303Z,99924.00
2023-08-07T20:05:21.105Z,99933.00
2023-08-07T20:07:51.286Z,99930.00
2023-08-07T20:10:24.333Z,99921.00
2023-08-07T20:12:53.515Z,99926.00
2023-08-07T20:15:22.748Z,99939.00
2023-08-07T20:17:52.531Z,99937.00
2023-08-07T20:20:22.133Z,99938.00
2023-08-07T20:22:52.342Z,99938.00
2023-08-07T20:25:21.296Z,99947.00
2023-08-07T20:27:50.657Z,99947.00
2023-08-07T20:30:19.587Z,99944.00
2023-08-07T20:32:48.467Z,99941.00
2023-08-07T20:35:17.317Z,99954.00
2023-08-07T20:37:46.052Z,99949.00
2023-08-07T20:40:16.402Z,99962.00
2023-08-07T20:42:45.149Z,99968.00
2023-08-07T20:45:14.210Z,99968.00
2023-08-07T20:47:43.084Z,99958.00
2023-08-07T20:50:12.820Z,99965.00
2023-08-07T20:52:41.650Z,99968.00
2023-08-07T20:55:11.127Z,99974.00
2023-08-07T20:57:41.373Z,99971.00
2023-08-07T21:00:11.402Z,99973.00
2023-08-07T21:02:40.224Z,99971.00
2023-08-07T21:05:09.476Z,99973.00
2023-08-07T21:07:38.268Z,99987.00
2023-08-07T21:10:08.642Z,99980.00
2023-08-07T21:12:37.661Z,99984.00
2023-08-07T21:15:09.213Z,99982.00
2023-08-07T21:17:38.106Z,99988.00
2023-08-07T21:20:08.023Z,99995.00
2023-08-07T21:22:36.790Z,99990.00
2023-08-07T21:25:06.231Z,99993.00
2023-08-07T21:27:35.119Z,99991.00
2023-08-07T21:30:04.022Z,99997.00
2023-08-07T21:32:34.143Z,99990.00
2023-08-07T21:35:02.948Z,99995.00
2023-08-07T21:37:34.630Z,99991.00
2023-08-07T21:40:05.677Z,99993.00
2023-08-07T21:42:35.901Z,99988.00
2023-08-07T21:45:06.655Z,99988.00
2023-08-07T21:47:38.038Z,99987.00
2023-08-07T21:50:07.935Z,100002.00
2023-08-07T21:52:36.655Z,100000.00
2023-08-07T21:55:05.958Z,99993.00
2023-08-07T21:57:35.123Z,100001.00
2023-08-07T22:00:06.920Z,99997.00
2023-08-07T22:02:37.090Z,99998.00
2023-08-07T22:05:07.758Z,100000.00
2023-08-07T22:07:37.773Z,99999.00
2023-08-07T22:10:06.784Z,99996.00
2023-08-07T22:12:36.054Z,99993.00
2023-08-07T22:15:05.046Z,99999.00
2023-08-07T22:17:33.992Z,100003.00
2023-08-07T22:20:05.950Z,99994.00
2023-08-07T22:22:35.100Z,100000.00
2023-08-07T22:25:04.775Z,100004.00
2023-08-07T22:27:33.447Z,100010.00
2023-08-07T22:30:02.855Z,100013.00
2023-08-07T22:32:31.863Z,100008.00
2023-08-07T22:35:00.767Z,100003.00
2023-08-07T22:37:30.834Z,100000.00
2023-08-07T22:39:59.512Z,100010.00
2023-08-07T22:42:28.204Z,100000.00
2023-08-07T22:44:56.925Z,100007.00
2023-08-07T22:47:25.650Z,100009.00
2023-08-07T22:49:54.408Z,100004.00
2023-08-07T22:52:23.115Z,100001.00
2023-08-07T22:54:53.125Z,100002.00
2023-08-07T22:57:21.865Z,100003.00
2023-08-07T22:59:51.880Z,99997.00
2023-08-07T23:02:20.614Z,100005.00
2023-08-07T23:04:49.344Z,100005.00
2023-08-07T23:07:18.775Z,100002.00
2023-08-07T23:09:47.473Z,99994.00
2023-08-07T23:12:17.836Z,100005.00
2023-08-07T23:14:46.573Z,100003.00
2023-08-07T23:17:18.783Z,100004.00
2023-08-07T23:19:47.735Z,100000.00
2023-08-07T23:22:16.547Z,100001.00
2023-08-07T23:24:45.221Z,99995.00
2023-08-07T23:27:14.148Z,99993.00
2023-08-07T23:29:45.117Z,100004.00
2023-08-07T23:32:13.760Z,99992.00
2023-08-07T23:34:42.461Z,99991.00
2023-08-07T23:37:11.192Z,99984.00
2023-08-07T23:39:39.815Z,99985.00
2023-08-07T23:42:09.025Z,99985.00
2023-08-07T23:44:38.476Z,99970.00
2023-08-07T23:47:09.107Z,99978.00
2023-08-07T23:49:38.029Z,99980.00
2023-08-07T23:52:07.226Z,99979.00
2023-08-07T23:54:35.994Z,99976.00
2023-08-07T23:57:05.048Z,99987.00
2023-08-07T23:59:33.703Z,99976.00
